createdAt,value
2022-11-17T00:00:42.815Z,9.98
2022-11-17T00:03:15.786Z,10.13
2022-11-17T00:05:44.425Z,9.57
2022-11-17T00:08:12.333Z,10.06
2022-11-17T00:10:39.857Z,10.19
2022-11-17T00:13:28.888Z,10.09
2022-11-17T00:15:56.415Z,9.70
2022-11-17T00:18:42.404Z,10.07
2022-11-17T00:21:23.506Z,9.71
2022-11-17T00:23:51.192Z,9.87
2022-11-17T00:26:23.933Z,9.87
2022-11-17T00:28:56.066Z,9.84
2022-11-17T00:31:43.941Z,9.47
2022-11-17T00:34:15.603Z,9.76
2022-11-17T00:36:46.598Z,9.77
2022-11-17T00:39:16.434Z,9.51
2022-11-17T00:41:44.377Z,9.91
2022-11-17T00:44:12.283Z,9.79
2022-11-17T00:46:40.785Z,9.48
2022-11-17T00:49:10.176Z,10.02
2022-11-17T00:51:38.076Z,9.99
2022-11-17T00:54:07.475Z,9.99
2022-11-17T00:56:35.000Z,9.84
2022-11-17T00:59:02.633Z,9.99
2022-11-17T01:01:30.475Z,9.78
2022-11-17T01:04:04.563Z,9.95
2022-11-17T01:06:35.862Z,9.97
2022-11-17T01:09:11.228Z,9.82
2022-11-17T01:11:38.984Z,9.88
2022-11-17T01:14:06.650Z,9.98
2022-11-17T01:16:34.124Z,9.87
2022-11-17T01:19:02.896Z,9.61
2022-11-17T01:21:31.500Z,9.83
2022-11-17T01:24:01.117Z,10.08
2022-11-17T01:26:32.026Z,10.00
2022-11-17T01:29:01.178Z,9.89
2022-11-17T01:31:31.060Z,9.89
2022-11-17T01:33:59.016Z,9.96
2022-11-17T01:36:56.577Z,9.67
2022-11-17T01:39:25.400Z,9.69
2022-11-17T01:41:53.618Z,9.49
2022-11-17T01:44:36.512Z,9.46
2022-11-17T01:47:08.135Z,9.35
2022-11-17T01:49:35.831Z,9.06
2022-11-17T01:52:07.437Z,9.15
2022-11-17T01:54:40.389Z,9.18
2022-11-17T01:57:13.446Z,9.26
2022-11-17T01:59:48.934Z,9.09
2022-11-17T02:02:16.866Z,8.85
2022-11-17T02:04:49.813Z,9.08
2022-11-17T02:07:23.176Z,8.88
2022-11-17T02:09:52.792Z,9.09
2022-11-17T02:12:23.581Z,8.71
2022-11-17T02:14:51.702Z,8.75
2022-11-17T02:17:21.605Z,8.95
2022-11-17T02:20:11.270Z,8.99
2022-11-17T02:23:10.138Z,8.88
2022-11-17T02:25:49.821Z,8.98
2022-11-17T02:28:17.356Z,8.70
2022-11-17T02:31:06.714Z,8.99
2022-11-17T02:33:34.469Z,8.82
2022-11-17T02:36:10.990Z,9.21
2022-11-17T02:39:10.064Z,9.22
2022-11-17T02:41:54.288Z,9.01
2022-11-17T02:44:39.979Z,9.25
2022-11-17T02:47:23.516Z,9.21
2022-11-17T02:49:58.974Z,9.02
2022-11-17T02:52:29.944Z,8.65
2022-11-17T02:55:02.791Z,8.98
2022-11-17T02:57:35.208Z,8.78
2022-11-17T03:00:05.408Z,8.71
2022-11-17T03:02:57.333Z,8.68
2022-11-17T03:05:48.856Z,8.62
2022-11-17T03:08:44.003Z,8.39
2022-11-17T03:11:11.725Z,8.52
2022-11-17T03:14:04.541Z,8.44
2022-11-17T03:16:41.446Z,8.29
2022-11-17T03:19:19.749Z,8.65
2022-11-17T03:21:57.341Z,8.58
2022-11-17T03:24:32.733Z,8.46
2022-11-17T03:27:07.679Z,8.48
2022-11-17T03:29:39.000Z,8.26
2022-11-17T03:32:10.018Z,8.50
2022-11-17T03:34:44.232Z,8.63
2022-11-17T03:37:15.532Z,8.72
2022-11-17T03:39:51.394Z,8.88
2022-11-17T03:42:30.693Z,9.06
2022-11-17T03:45:03.355Z,8.97
2022-11-17T03:47:33.753Z,8.92
2022-11-17T03:50:09.444Z,9.09
2022-11-17T03:52:38.077Z,8.81
2022-11-17T03:55:06.557Z,8.77
2022-11-17T03:58:05.695Z,8.91
2022-11-17T04:00:36.705Z,8.59
2022-11-17T04:03:04.297Z,8.59
2022-11-17T04:05:31.905Z,8.73
2022-11-17T04:07:59.413Z,8.99
2022-11-17T04:10:27.001Z,8.67
2022-11-17T04:13:13.345Z,8.14
2022-11-17T04:15:56.304Z,8.77
2022-11-17T04:18:24.068Z,8.90
2022-11-17T04:20:54.000Z,8.34
2022-11-17T04:23:22.564Z,8.47
2022-11-17T04:26:11.259Z,8.34
2022-11-17T04:28:47.929Z,8.37
2022-11-17T04:31:17.005Z,8.50
2022-11-17T04:33:46.981Z,8.46
2022-11-17T04:36:17.470Z,8.29
2022-11-17T04:38:47.338Z,8.40
2022-11-17T04:41:34.668Z,8.36
2022-11-17T04:44:03.155Z,8.35
2022-11-17T04:46:32.277Z,8.42
2022-11-17T04:49:00.896Z,8.24
2022-11-17T04:51:29.770Z,8.35
2022-11-17T04:53:58.067Z,8.31
2022-11-17T04:56:26.938Z,8.17
2022-11-17T04:58:54.967Z,8.15
2022-11-17T05:01:23.659Z,8.02
2022-11-17T05:03:56.675Z,8.22
2022-11-17T05:06:38.008Z,8.44
2022-11-17T05:09:13.923Z,8.32
2022-11-17T05:12:01.346Z,8.44
2022-11-17T05:14:29.720Z,8.56
2022-11-17T05:17:10.547Z,8.35
2022-11-17T05:19:47.153Z,8.42
2022-11-17T05:22:35.896Z,8.57
2022-11-17T05:25:04.450Z,8.80
2022-11-17T05:27:33.954Z,8.84
2022-11-17T05:30:02.661Z,8.73
2022-11-17T05:32:31.419Z,8.91
2022-11-17T05:34:59.012Z,8.75
2022-11-17T05:37:26.636Z,8.68
2022-11-17T05:39:56.311Z,8.41
2022-11-17T05:42:23.947Z,8.27
2022-11-17T05:44:51.467Z,8.71
2022-11-17T05:47:18.999Z,8.89
2022-11-17T05:49:46.469Z,8.60
2022-11-17T05:52:14.051Z,8.68
2022-11-17T05:54:41.516Z,8.58
2022-11-17T05:57:14.348Z,8.40
2022-11-17T05:59:48.605Z,8.32
2022-11-17T06:02:38.724Z,8.60
2022-11-17T06:05:06.450Z,8.44
2022-11-17T06:07:36.805Z,8.55
2022-11-17T06:10:05.352Z,8.52
2022-11-17T06:12:32.840Z,8.34
2022-11-17T06:15:00.304Z,8.54
2022-11-17T06:17:40.722Z,8.25
2022-11-17T06:20:28.305Z,8.40
2022-11-17T06:23:00.532Z,8.43
2022-11-17T06:25:29.065Z,8.33
2022-11-17T06:27:58.268Z,8.33
2022-11-17T06:30:25.836Z,8.46
2022-11-17T06:32:53.625Z,7.88
2022-11-17T06:35:21.182Z,8.05
2022-11-17T06:37:48.760Z,8.15
2022-11-17T06:40:16.558Z,8.24
2022-11-17T06:43:02.299Z,8.24
2022-11-17T06:45:34.285Z,8.35
2022-11-17T06:48:02.326Z,8.37
2022-11-17T06:50:29.873Z,8.59
2022-11-17T06:53:08.536Z,9.57
2022-11-17T06:55:36.948Z,10.66
2022-11-17T06:58:07.662Z,11.16
2022-11-17T07:00:37.109Z,11.22
2022-11-17T07:03:09.760Z,12.12
2022-11-17T07:05:40.236Z,11.73
2022-11-17T07:08:09.594Z,11.97
2022-11-17T07:10:38.056Z,11.00
2022-11-17T07:13:05.636Z,10.06
2022-11-17T07:15:33.233Z,10.98
2022-11-17T07:18:00.878Z,12.43
2022-11-17T07:20:28.543Z,13.08
2022-11-17T07:23:00.210Z,14.56
2022-11-17T07:25:27.801Z,13.22
2022-11-17T07:28:00.005Z,12.12
2022-11-17T07:30:27.815Z,10.93
2022-11-17T07:32:55.453Z,10.90
2022-11-17T07:35:22.941Z,10.96
2022-11-17T07:37:50.597Z,10.52
2022-11-17T07:40:18.311Z,10.71
2022-11-17T07:42:49.984Z,10.52
2022-11-17T07:45:18.133Z,10.66
2022-11-17T07:47:45.667Z,10.59
2022-11-17T07:50:15.701Z,10.54
2022-11-17T07:52:43.212Z,10.73
2022-11-17T07:55:10.706Z,10.93
2022-11-17T07:57:38.209Z,11.12
2022-11-17T08:00:06.306Z,12.93
2022-11-17T08:02:40.528Z,13.34
2022-11-17T08:05:08.496Z,13.27
2022-11-17T08:07:36.057Z,13.54
2022-11-17T08:10:04.430Z,13.81
2022-11-17T08:12:31.987Z,12.71
2022-11-17T08:14:59.490Z,12.50
2022-11-17T08:17:27.612Z,11.91
2022-11-17T08:19:56.329Z,11.84
2022-11-17T08:22:24.168Z,11.23
2022-11-17T08:24:51.694Z,11.97
2022-11-17T08:27:19.186Z,12.26
2022-11-17T08:29:46.713Z,12.74
2022-11-17T08:32:14.190Z,13.14
2022-11-17T08:34:41.670Z,12.75
2022-11-17T08:37:09.468Z,12.28
2022-11-17T08:39:37.196Z,12.03
2022-11-17T08:42:04.671Z,11.25
2022-11-17T08:44:32.193Z,10.96
2022-11-17T08:46:59.758Z,11.59
2022-11-17T08:49:27.308Z,11.93
2022-11-17T08:51:54.837Z,12.22
2022-11-17T08:54:22.403Z,11.88
2022-11-17T08:56:50.073Z,11.86
2022-11-17T08:59:17.648Z,11.15
2022-11-17T09:01:45.401Z,11.05
2022-11-17T09:04:13.079Z,10.79
2022-11-17T09:06:40.606Z,11.54
2022-11-17T09:09:08.300Z,11.38
2022-11-17T09:11:35.866Z,11.02
2022-11-17T09:14:03.723Z,10.82
2022-11-17T09:16:31.177Z,11.36
2022-11-17T09:18:59.003Z,11.45
2022-11-17T09:21:27.686Z,11.30
2022-11-17T09:23:55.243Z,10.96
2022-11-17T09:26:22.917Z,11.01
2022-11-17T09:28:50.558Z,10.97
2022-11-17T09:31:20.879Z,10.94
2022-11-17T09:33:48.486Z,11.39
2022-11-17T09:36:16.971Z,11.59
2022-11-17T09:38:46.782Z,11.83
2022-11-17T09:41:40.722Z,12.15
2022-11-17T09:44:12.486Z,12.19
2022-11-17T09:46:46.145Z,12.57
2022-11-17T09:49:53.647Z,11.85
2022-11-17T09:52:36.192Z,11.82
2022-11-17T09:55:09.516Z,11.89
2022-11-17T09:57:48.687Z,11.73
2022-11-17T10:00:21.214Z,11.36
2022-11-17T10:02:50.710Z,11.98
2022-11-17T10:05:28.442Z,11.96
2022-11-17T10:08:03.513Z,11.53
2022-11-17T10:10:36.186Z,11.29
2022-11-17T10:13:06.187Z,12.62
2022-11-17T10:15:47.287Z,12.42
2022-11-17T10:18:16.507Z,13.84
2022-11-17T10:20:45.220Z,17.09
2022-11-17T10:23:19.005Z,16.23
2022-11-17T10:25:48.517Z,16.45
2022-11-17T10:28:32.410Z,14.45
2022-11-17T10:31:17.845Z,13.90
2022-11-17T10:33:48.774Z,13.05
2022-11-17T10:36:23.701Z,13.94
2022-11-17T10:38:59.229Z,12.86
2022-11-17T10:41:41.285Z,12.14
2022-11-17T10:44:29.781Z,11.88
2022-11-17T10:47:04.143Z,12.51
2022-11-17T10:49:33.776Z,12.36
2022-11-17T10:52:16.712Z,12.21
2022-11-17T10:54:44.804Z,12.89
2022-11-17T10:57:20.090Z,12.38
2022-11-17T10:59:57.666Z,13.10
2022-11-17T11:02:36.455Z,12.70
2022-11-17T11:05:12.946Z,13.00
2022-11-17T11:07:41.162Z,12.85
2022-11-17T11:10:18.822Z,13.71
2022-11-17T11:12:52.684Z,14.35
2022-11-17T11:15:24.609Z,15.91
2022-11-17T11:17:52.507Z,15.01
2022-11-17T11:20:39.554Z,14.30
2022-11-17T11:23:20.875Z,15.18
2022-11-17T11:26:02.135Z,14.40
2022-11-17T11:28:46.359Z,14.26
2022-11-17T11:31:41.987Z,14.13
2022-11-17T11:34:36.709Z,13.69
2022-11-17T11:37:12.426Z,14.07
2022-11-17T11:39:59.208Z,13.58
2022-11-17T11:42:46.479Z,13.16
2022-11-17T11:45:36.667Z,13.73
2022-11-17T11:48:09.119Z,13.55
2022-11-17T11:50:47.418Z,13.32
2022-11-17T11:53:20.622Z,13.87
2022-11-17T11:55:50.251Z,13.76
2022-11-17T11:58:24.728Z,13.87
2022-11-17T12:01:12.220Z,13.51
2022-11-17T12:03:58.216Z,14.24
2022-11-17T12:06:43.922Z,15.19
2022-11-17T12:09:32.480Z,15.13
2022-11-17T12:12:06.514Z,15.96
2022-11-17T12:14:36.794Z,17.08
2022-11-17T12:17:24.217Z,15.80
2022-11-17T12:20:09.294Z,16.05
2022-11-17T12:22:56.584Z,15.98
2022-11-17T12:25:30.392Z,15.10
2022-11-17T12:27:58.100Z,15.61
2022-11-17T12:30:34.769Z,15.39
2022-11-17T12:33:06.843Z,15.07
2022-11-17T12:35:36.255Z,17.15
2022-11-17T12:38:15.618Z,18.44
2022-11-17T12:40:52.603Z,20.52
2022-11-17T12:43:27.790Z,23.76
2022-11-17T12:45:58.276Z,22.40
2022-11-17T12:48:35.124Z,23.51
2022-11-17T12:51:18.017Z,22.43
2022-11-17T12:54:16.128Z,21.40
2022-11-17T12:57:26.453Z,21.82
2022-11-17T13:00:22.165Z,21.99
2022-11-17T13:02:56.130Z,21.72
2022-11-17T13:05:24.996Z,22.09
2022-11-17T13:08:10.852Z,21.01
2022-11-17T13:10:38.422Z,20.23
2022-11-17T13:13:24.052Z,20.81
2022-11-17T13:15:54.655Z,20.49
2022-11-17T13:18:32.204Z,22.23
2022-11-17T13:21:00.974Z,22.39
2022-11-17T13:23:31.587Z,22.28
2022-11-17T13:26:10.633Z,20.60
2022-11-17T13:28:38.297Z,18.02
2022-11-17T13:31:06.591Z,17.09
2022-11-17T13:33:40.019Z,16.01
2022-11-17T13:36:19.841Z,15.21
2022-11-17T13:38:51.963Z,15.20
2022-11-17T13:41:21.856Z,14.37
2022-11-17T13:43:51.259Z,14.19
2022-11-17T13:46:19.107Z,14.03
2022-11-17T13:48:49.154Z,13.82
2022-11-17T13:51:19.734Z,13.76
2022-11-17T13:53:52.599Z,13.79
2022-11-17T13:56:46.179Z,13.40
2022-11-17T13:59:26.524Z,13.23
2022-11-17T14:02:29.938Z,13.06
2022-11-17T14:05:16.792Z,13.16
2022-11-17T14:07:45.386Z,13.57
2022-11-17T14:10:13.367Z,13.02
2022-11-17T14:12:44.747Z,13.19
2022-11-17T14:15:20.967Z,13.17
2022-11-17T14:17:50.893Z,12.86
2022-11-17T14:20:24.415Z,13.07
2022-11-17T14:23:08.829Z,12.97
2022-11-17T14:25:53.190Z,12.71
2022-11-17T14:28:25.497Z,12.74
2022-11-17T14:30:54.760Z,12.85
2022-11-17T14:33:23.074Z,12.72
2022-11-17T14:35:57.063Z,12.63
2022-11-17T14:38:25.339Z,12.60
2022-11-17T14:40:53.771Z,12.50
2022-11-17T14:43:22.530Z,12.52
2022-11-17T14:45:50.913Z,12.31
2022-11-17T14:48:19.694Z,12.23
2022-11-17T14:50:47.824Z,12.71
2022-11-17T14:53:15.599Z,12.73
2022-11-17T14:55:43.064Z,12.62
2022-11-17T14:58:10.649Z,12.13
2022-11-17T15:00:38.160Z,11.98
2022-11-17T15:03:05.689Z,12.58
2022-11-17T15:05:33.684Z,12.40
2022-11-17T15:08:01.243Z,12.26
2022-11-17T15:10:28.752Z,12.31
2022-11-17T15:12:56.348Z,12.03
2022-11-17T15:15:23.823Z,11.88
2022-11-17T15:17:51.377Z,11.72
2022-11-17T15:20:19.041Z,11.54
2022-11-17T15:22:46.506Z,11.27
2022-11-17T15:25:14.095Z,11.24
2022-11-17T15:27:41.560Z,11.07
2022-11-17T15:30:09.436Z,10.86
2022-11-17T15:32:37.246Z,11.00
2022-11-17T15:35:05.322Z,10.69
2022-11-17T15:37:32.838Z,10.91
2022-11-17T15:40:00.646Z,11.01
2022-11-17T15:42:28.158Z,11.12
2022-11-17T15:44:55.707Z,11.01
2022-11-17T15:47:23.685Z,11.09
2022-11-17T15:49:58.436Z,11.29
2022-11-17T15:52:48.787Z,11.34
2022-11-17T15:55:13.721Z,11.35
2022-11-17T15:57:41.299Z,11.28
2022-11-17T16:00:09.940Z,11.04
2022-11-17T16:02:37.446Z,11.33
2022-11-17T16:05:05.495Z,11.26
2022-11-17T16:07:33.143Z,11.28
2022-11-17T16:10:00.857Z,10.94
2022-11-17T16:12:28.361Z,11.23
2022-11-17T16:14:55.888Z,10.97
2022-11-17T16:17:23.409Z,11.00
2022-11-17T16:19:51.684Z,11.02
2022-11-17T16:22:19.273Z,11.01
2022-11-17T16:24:46.738Z,10.95
2022-11-17T16:27:14.333Z,10.80
2022-11-17T16:29:41.867Z,10.79
2022-11-17T16:32:09.499Z,10.52
2022-11-17T16:34:38.527Z,10.41
2022-11-17T16:37:06.011Z,10.70
2022-11-17T16:39:33.784Z,10.74
2022-11-17T16:42:01.648Z,10.71
2022-11-17T16:44:29.179Z,10.73
2022-11-17T16:46:56.989Z,10.82
2022-11-17T16:49:24.770Z,10.94
2022-11-17T16:51:56.729Z,10.98
2022-11-17T16:54:24.162Z,10.89
2022-11-17T16:56:51.740Z,10.84
2022-11-17T16:59:19.761Z,11.07
2022-11-17T17:01:47.722Z,11.14
2022-11-17T17:04:23.511Z,11.23
2022-11-17T17:06:51.528Z,11.25
2022-11-17T17:09:24.749Z,10.92
2022-11-17T17:11:55.306Z,11.14
2022-11-17T17:14:22.946Z,11.07
2022-11-17T17:16:51.168Z,11.15
2022-11-17T17:19:19.155Z,10.82
2022-11-17T17:21:46.819Z,11.32
2022-11-17T17:24:14.652Z,11.49
2022-11-17T17:26:42.542Z,11.53
2022-11-17T17:29:10.632Z,11.31
2022-11-17T17:31:40.486Z,11.38
2022-11-17T17:34:11.525Z,11.29
2022-11-17T17:36:40.017Z,11.71
2022-11-17T17:39:08.109Z,11.55
2022-11-17T17:41:40.981Z,11.47
2022-11-17T17:44:13.290Z,11.61
2022-11-17T17:46:42.913Z,11.49
2022-11-17T17:49:11.898Z,11.72
2022-11-17T17:51:44.054Z,11.87
2022-11-17T17:54:19.876Z,11.92
2022-11-17T17:56:48.252Z,11.75
2022-11-17T17:59:17.080Z,11.77
2022-11-17T18:01:46.329Z,11.93
2022-11-17T18:04:16.223Z,11.82
2022-11-17T18:06:48.826Z,11.85
2022-11-17T18:09:19.390Z,11.83
2022-11-17T18:11:50.344Z,11.65
2022-11-17T18:14:29.094Z,11.72
2022-11-17T18:16:56.882Z,11.79
2022-11-17T18:19:31.371Z,11.88
2022-11-17T18:22:01.256Z,11.73
2022-11-17T18:24:29.029Z,11.50
2022-11-17T18:26:56.843Z,11.73
2022-11-17T18:29:24.970Z,11.75
2022-11-17T18:31:52.506Z,11.21
2022-11-17T18:34:22.927Z,11.66
2022-11-17T18:36:52.362Z,11.41
2022-11-17T18:39:21.396Z,11.74
2022-11-17T18:41:52.267Z,11.40
2022-11-17T18:44:20.070Z,11.40
2022-11-17T18:46:48.470Z,11.23
2022-11-17T18:49:16.804Z,11.41
2022-11-17T18:51:44.848Z,11.28
2022-11-17T18:54:13.095Z,11.23
2022-11-17T18:56:41.045Z,11.36
2022-11-17T18:59:11.934Z,11.34
2022-11-17T19:01:41.760Z,11.47
2022-11-17T19:04:11.725Z,11.43
2022-11-17T19:06:39.609Z,11.49
2022-11-17T19:09:08.258Z,11.31
2022-11-17T19:11:36.016Z,11.03
2022-11-17T19:14:07.007Z,11.11
2022-11-17T19:16:41.030Z,11.30
2022-11-17T19:19:13.463Z,11.26
2022-11-17T19:21:42.203Z,11.22
2022-11-17T19:24:09.908Z,10.99
2022-11-17T19:26:37.728Z,11.10
2022-11-17T19:29:15.668Z,11.16
2022-11-17T19:31:47.625Z,11.14
2022-11-17T19:34:16.089Z,11.01
2022-11-17T19:36:45.282Z,11.19
2022-11-17T19:39:14.165Z,11.10
2022-11-17T19:41:43.708Z,11.13
2022-11-17T19:44:11.488Z,11.03
2022-11-17T19:46:39.405Z,11.11
2022-11-17T19:49:08.084Z,11.25
2022-11-17T19:51:37.244Z,11.03
2022-11-17T19:54:07.863Z,11.16
2022-11-17T19:56:36.220Z,11.02
2022-11-17T19:59:05.078Z,11.22
2022-11-17T20:01:33.886Z,11.31
2022-11-17T20:04:01.744Z,11.23
2022-11-17T20:06:35.361Z,11.35
2022-11-17T20:09:08.747Z,11.37
2022-11-17T20:11:36.995Z,11.21
2022-11-17T20:14:07.315Z,10.69
2022-11-17T20:16:36.787Z,10.75
2022-11-17T20:19:05.016Z,10.96
2022-11-17T20:21:33.615Z,10.98
2022-11-17T20:24:02.142Z,10.79
2022-11-17T20:26:32.050Z,10.68
2022-11-17T20:29:05.327Z,10.75
2022-11-17T20:31:35.560Z,10.65
2022-11-17T20:34:05.484Z,10.59
2022-11-17T20:36:34.417Z,10.79
2022-11-17T20:39:05.967Z,10.75
2022-11-17T20:41:33.847Z,10.49
2022-11-17T20:44:03.188Z,10.71
2022-11-17T20:46:31.217Z,10.69
2022-11-17T20:48:59.038Z,10.62
2022-11-17T20:51:27.066Z,10.70
2022-11-17T20:53:55.613Z,10.87
2022-11-17T20:56:23.335Z,10.66
2022-11-17T20:58:50.927Z,10.11
2022-11-17T21:01:21.281Z,10.63
2022-11-17T21:03:49.654Z,10.59
2022-11-17T21:06:18.195Z,10.64
2022-11-17T21:08:46.167Z,10.61
2022-11-17T21:11:36.693Z,10.51
2022-11-17T21:14:07.488Z,10.47
2022-11-17T21:16:37.300Z,10.27
2022-11-17T21:19:04.996Z,10.22
2022-11-17T21:21:32.749Z,9.92
2022-11-17T21:24:00.672Z,9.74
2022-11-17T21:26:28.507Z,9.98
2022-11-17T21:28:59.372Z,10.05
2022-11-17T21:31:31.985Z,10.02
2022-11-17T21:34:02.249Z,10.05
2022-11-17T21:36:31.489Z,10.01
2022-11-17T21:38:59.883Z,9.95
2022-11-17T21:41:35.363Z,9.90
2022-11-17T21:44:03.935Z,9.82
2022-11-17T21:46:33.569Z,9.71
2022-11-17T21:49:01.627Z,9.72
2022-11-17T21:51:34.593Z,9.91
2022-11-17T21:54:04.480Z,9.89
2022-11-17T21:56:32.681Z,9.93
2022-11-17T21:59:06.021Z,9.97
2022-11-17T22:01:35.351Z,9.89
2022-11-17T22:04:03.007Z,9.87
2022-11-17T22:06:30.789Z,9.93
2022-11-17T22:08:59.655Z,9.86
2022-11-17T22:11:36.147Z,9.87
2022-11-17T22:14:06.601Z,9.54
2022-11-17T22:16:36.191Z,9.68
2022-11-17T22:19:04.529Z,9.68
2022-11-17T22:21:32.166Z,9.63
2022-11-17T22:23:59.884Z,9.56
2022-11-17T22:26:27.431Z,9.50
2022-11-17T22:28:56.171Z,9.48
2022-11-17T22:31:24.270Z,9.44
2022-11-17T22:33:52.011Z,9.49
2022-11-17T22:36:20.021Z,9.41
2022-11-17T22:38:51.335Z,9.41
2022-11-17T22:41:20.872Z,9.30
2022-11-17T22:43:56.267Z,9.28
2022-11-17T22:46:28.507Z,8.82
2022-11-17T22:48:56.843Z,8.87
2022-11-17T22:51:43.734Z,8.91
2022-11-17T22:54:11.452Z,8.74
2022-11-17T22:56:39.338Z,8.78
2022-11-17T22:59:07.740Z,8.90
2022-11-17T23:01:35.303Z,8.86
2022-11-17T23:04:02.966Z,8.80
2022-11-17T23:06:30.489Z,8.76
2022-11-17T23:08:58.359Z,8.75
2022-11-17T23:11:41.836Z,8.41
2022-11-17T23:14:12.386Z,8.58
2022-11-17T23:16:39.963Z,8.51
2022-11-17T23:19:11.188Z,8.60
2022-11-17T23:21:38.670Z,8.53
2022-11-17T23:24:06.687Z,8.45
2022-11-17T23:26:34.126Z,8.34
2022-11-17T23:29:01.714Z,8.14
2022-11-17T23:31:29.497Z,7.92
2022-11-17T23:33:57.091Z,7.93
2022-11-17T23:36:24.979Z,7.90
2022-11-17T23:38:55.294Z,7.40
2022-11-17T23:41:23.057Z,7.45
2022-11-17T23:43:52.575Z,7.40
2022-11-17T23:46:23.043Z,7.58
2022-11-17T23:48:50.633Z,7.63
2022-11-17T23:51:24.328Z,7.46
2022-11-17T23:53:52.879Z,7.54
2022-11-17T23:56:20.859Z,7.46
2022-11-17T23:58:48.783Z,7.42
